createdAt,value
2022-08-17T00:03:42.622Z,10.10
2022-08-17T00:13:49.191Z,7.80
2022-08-17T00:23:51.315Z,7.47
2022-08-17T00:33:53.224Z,7.93
2022-08-17T00:44:01.898Z,6.90
2022-08-17T00:54:14.249Z,7.73
2022-08-17T01:04:18.108Z,7.90
2022-08-17T01:14:21.598Z,8.23
2022-08-17T01:24:23.646Z,7.73
2022-08-17T01:34:36.820Z,8.00
2022-08-17T01:44:45.115Z,7.87
2022-08-17T01:54:49.161Z,8.30
2022-08-17T02:04:51.735Z,6.93
2022-08-17T02:14:53.262Z,7.07
2022-08-17T02:25:00.815Z,7.43
2022-08-17T02:35:05.459Z,6.50
2022-08-17T02:45:11.179Z,7.60
2022-08-17T02:55:25.078Z,8.30
2022-08-17T03:05:29.505Z,7.43
2022-08-17T03:15:33.634Z,7.97
2022-08-17T03:25:38.716Z,7.30
2022-08-17T03:35:41.383Z,7.90
2022-08-17T03:46:02.027Z,7.37
2022-08-17T03:56:24.339Z,6.97
2022-08-17T04:06:25.816Z,7.90
2022-08-17T04:16:27.488Z,8.23
2022-08-17T04:26:52.276Z,7.97
2022-08-17T04:36:52.583Z,6.83
2022-08-17T04:46:54.448Z,5.83
2022-08-17T04:56:55.975Z,6.10
2022-08-17T05:06:57.616Z,5.77
2022-08-17T05:16:59.138Z,6.13
2022-08-17T05:27:06.314Z,5.23
2022-08-17T05:37:08.246Z,5.70
2022-08-17T05:47:09.753Z,5.67
2022-08-17T05:57:26.857Z,6.40
2022-08-17T06:07:47.874Z,5.90
2022-08-17T06:17:54.630Z,4.93
2022-08-17T06:28:02.739Z,7.60
2022-08-17T06:38:37.119Z,4.17
2022-08-17T06:48:47.175Z,3.45
2022-08-17T06:58:50.117Z,4.32
2022-08-17T07:09:02.753Z,5.20
2022-08-17T07:19:07.318Z,5.03
2022-08-17T07:29:17.772Z,3.20
2022-08-17T07:39:27.939Z,3.95
2022-08-17T07:49:37.055Z,3.05
2022-08-17T08:00:03.283Z,2.55
2022-08-17T08:10:29.200Z,3.08
2022-08-17T08:20:52.042Z,2.80
2022-08-17T08:31:42.094Z,2.95
2022-08-17T08:41:57.022Z,4.07
2022-08-17T08:52:01.303Z,3.10
2022-08-17T09:02:35.117Z,3.38
2022-08-17T09:12:44.592Z,2.92
2022-08-17T09:22:53.130Z,3.80
2022-08-17T09:32:59.849Z,3.83
2022-08-17T09:43:17.334Z,3.95
2022-08-17T09:53:19.255Z,4.50
2022-08-17T10:03:35.398Z,2.63
2022-08-17T10:13:53.509Z,3.00
2022-08-17T10:24:24.405Z,2.92
2022-08-17T10:34:44.321Z,2.58
2022-08-17T10:44:56.267Z,2.50
2022-08-17T10:54:58.390Z,2.22
2022-08-17T11:05:00.412Z,2.83
2022-08-17T11:15:33.430Z,2.35
2022-08-17T11:25:47.219Z,2.50
2022-08-17T11:35:53.622Z,2.63
2022-08-17T11:46:02.340Z,2.97
2022-08-17T11:56:09.517Z,4.05
2022-08-17T12:06:33.367Z,3.40
2022-08-17T12:16:35.145Z,2.40
2022-08-17T12:26:37.714Z,2.28
2022-08-17T12:36:40.220Z,2.88
2022-08-17T12:47:21.951Z,2.58
2022-08-17T12:57:26.750Z,2.60
2022-08-17T13:07:42.480Z,2.17
2022-08-17T13:17:57.311Z,2.75
2022-08-17T13:28:00.449Z,2.80
2022-08-17T13:38:14.847Z,3.38
2022-08-17T13:48:16.659Z,3.13
2022-08-17T13:58:40.644Z,2.47
2022-08-17T14:08:42.193Z,2.25
2022-08-17T14:18:56.166Z,2.75
2022-08-17T14:28:58.770Z,2.47
2022-08-17T14:39:02.048Z,2.38
2022-08-17T14:49:03.967Z,2.55
2022-08-17T14:59:06.035Z,2.83
2022-08-17T15:09:07.531Z,3.97
2022-08-17T15:19:09.034Z,2.70
2022-08-17T15:29:10.803Z,2.63
2022-08-17T15:39:12.337Z,2.47
2022-08-17T15:49:13.801Z,3.28
2022-08-17T15:59:15.373Z,2.80
2022-08-17T16:09:16.844Z,3.13
2022-08-17T16:19:18.692Z,10.80
2022-08-17T16:29:21.357Z,6.03
2022-08-17T16:39:28.852Z,3.50
2022-08-17T16:49:37.249Z,4.15
2022-08-17T16:59:43.605Z,3.08
2022-08-17T17:09:48.940Z,3.08
2022-08-17T17:20:00.709Z,3.28
2022-08-17T17:30:20.693Z,2.95
2022-08-17T17:40:37.472Z,5.97
2022-08-17T17:51:04.016Z,5.60
2022-08-17T18:01:22.051Z,2.92
2022-08-17T18:11:51.376Z,3.13
2022-08-17T18:22:02.818Z,5.20
2022-08-17T18:32:32.333Z,3.10
2022-08-17T18:42:33.964Z,6.63
2022-08-17T18:52:35.429Z,3.85
2022-08-17T19:02:56.088Z,5.80
2022-08-17T19:13:12.445Z,4.37
2022-08-17T19:23:23.724Z,3.77
2022-08-17T19:33:26.124Z,3.80
2022-08-17T19:43:50.563Z,3.70
2022-08-17T19:54:09.155Z,3.57
2022-08-17T20:04:32.469Z,4.43
2022-08-17T20:14:58.372Z,5.37
2022-08-17T20:25:18.454Z,3.60
2022-08-17T20:35:53.076Z,3.67
2022-08-17T20:46:06.674Z,4.57
2022-08-17T20:56:08.180Z,3.60
2022-08-17T21:06:17.502Z,4.73
2022-08-17T21:16:41.191Z,5.13
2022-08-17T21:27:00.916Z,5.00
2022-08-17T21:37:23.688Z,5.43
2022-08-17T21:47:28.009Z,3.13
2022-08-17T21:57:30.788Z,3.43
2022-08-17T22:07:39.435Z,4.63
2022-08-17T22:17:46.589Z,3.40
2022-08-17T22:27:54.935Z,4.07
2022-08-17T22:37:57.378Z,4.20
2022-08-17T22:48:02.007Z,3.80
2022-08-17T22:58:33.383Z,6.37
2022-08-17T23:08:44.008Z,5.00
2022-08-17T23:18:46.226Z,11.27
2022-08-17T23:28:47.803Z,5.73
2022-08-17T23:38:49.360Z,7.50
2022-08-17T23:48:53.428Z,15.10
2022-08-17T23:58:55.848Z,11.27
